Time;durP1;ratioP1;P1;durP2;ratioP2;P2;SDS_P1;SDS_P2;PMS_P1;PMS_P2;Temp;Humidity;BMP_temperature;BMP_pressure;BME280_temperature;BME280_humidity;BME280_pressure;Samples;Min_cycle;Max_cycle;Signal;HPM_P1;HPM_P2
2023/09/29 05:52:09;;;;;;;5.03;3.40;;;;;;;;;;6080752;23;20014;31
2023/09/29 05:54:34;;;;;;;3.63;3.33;;;;;;;;;;4913399;29;20363;-72
2023/09/29 05:57:00;;;;;;;9.45;3.35;;;;;;;;;;4899664;29;20040;-71
2023/09/29 05:59:25;;;;;;;3.42;3.13;;;;;;;;;;4915489;29;20384;-72
2023/09/29 06:01:51;;;;;;;4.60;3.25;;;;;;;;;;4916380;29;20029;-71
2023/09/29 06:04:17;;;;;;;5.18;3.25;;;;;;;;;;4916360;29;20520;-71
2023/09/29 06:06:43;;;;;;;4.55;3.40;;;;;;;;;;4916241;29;20031;-71
2023/09/29 06:09:08;;;;;;;3.53;3.22;;;;;;;;;;4919757;29;20027;-71
2023/09/29 06:11:34;;;;;;;3.38;3.08;;;;;;;;;;4925344;29;20514;-71
2023/09/29 06:14:00;;;;;;;4.43;3.35;;;;;;;;;;4908497;29;20041;-71
2023/09/29 06:16:26;;;;;;;3.00;2.80;;;;;;;;;;4934859;29;20369;-71
2023/09/29 06:18:51;;;;;;;5.45;3.35;;;;;;;;;;4924148;29;20028;-70
2023/09/29 06:21:17;;;;;;;4.78;3.38;;;;;;;;;;4909068;29;20034;-71
2023/09/29 06:23:42;;;;;;;4.55;3.10;;;;;;;;;;4916017;29;20550;-71
2023/09/29 06:26:08;;;;;;;3.70;3.20;;;;;;;;;;4916294;29;20564;-71
2023/09/29 06:28:34;;;;;;;3.20;2.90;;;;;;;;;;4898968;29;20393;-72
2023/09/29 06:30:59;;;;;;;3.78;2.88;;;;;;;;;;4916074;29;20059;-72
2023/09/29 06:33:25;;;;;;;4.85;3.17;;;;;;;;;;4916033;29;20035;-72
2023/09/29 06:35:52;;;;;;;4.47;3.40;;;;;;;;;;4916202;29;20096;-72
2023/09/29 06:38:17;;;;;;;4.32;3.40;;;;;;;;;;4915507;29;20112;-71
2023/09/29 06:40:44;;;;;;;4.05;3.10;;;;;;;;;;4915815;29;20127;-71
2023/09/29 06:43:10;;;;;;;3.97;3.10;;;;;;;;;;4915595;29;20028;-72
2023/09/29 06:45:36;;;;;;;5.28;3.35;;;;;;;;;;4915910;29;20473;-74
2023/09/29 06:48:04;;;;;;;3.05;2.72;;;;;;;;;;4915627;29;20020;-73
2023/09/29 06:50:30;;;;;;;3.10;2.90;;;;;;;;;;4917444;29;20135;-73
2023/09/29 06:52:55;;;;;;;3.05;2.70;;;;;;;;;;4914630;29;20533;-73
2023/09/29 06:55:21;;;;;;;3.13;2.83;;;;;;;;;;4914880;29;20692;-73
2023/09/29 06:57:48;;;;;;;3.10;2.90;;;;;;;;;;4917448;29;20028;-73
2023/09/29 07:00:13;;;;;;;3.30;3.00;;;;;;;;;;4915859;29;20489;-73
2023/09/29 07:02:39;;;;;;;3.75;3.38;;;;;;;;;;4916144;29;20119;-74
2023/09/29 07:05:05;;;;;;;3.10;2.80;;;;;;;;;;4916031;29;20036;-74
2023/09/29 07:07:31;;;;;;;3.45;3.15;;;;;;;;;;4915807;29;20378;-70
2023/09/29 07:09:57;;;;;;;3.55;3.25;;;;;;;;;;4915682;29;20039;-74
2023/09/29 07:12:24;;;;;;;3.97;3.10;;;;;;;;;;4918519;29;20055;-74
2023/09/29 07:14:51;;;;;;;3.90;3.47;;;;;;;;;;4919202;29;20161;-75
2023/09/29 07:17:17;;;;;;;3.30;3.10;;;;;;;;;;4918538;29;20390;-74
2023/09/29 07:19:43;;;;;;;3.78;3.20;;;;;;;;;;4918183;29;20040;-72
2023/09/29 07:22:08;;;;;;;3.88;2.92;;;;;;;;;;4917713;29;20028;-74
2023/09/29 07:24:34;;;;;;;3.42;3.10;;;;;;;;;;4917739;29;20036;-73
2023/09/29 07:26:59;;;;;;;3.28;2.97;;;;;;;;;;4926463;29;20022;-72
2023/09/29 07:29:25;;;;;;;2.95;2.75;;;;;;;;;;4927335;29;20504;-72
2023/09/29 07:31:51;;;;;;;2.60;2.40;;;;;;;;;;4927878;29;20136;-72
2023/09/29 07:34:17;;;;;;;3.65;3.10;;;;;;;;;;4928711;29;20059;-72
2023/09/29 07:36:48;;;;;;;3.13;2.83;;;;;;;;;;4921628;29;20036;-72
2023/09/29 07:39:15;;;;;;;3.35;2.80;;;;;;;;;;4918982;29;20024;-73
2023/09/29 07:41:41;;;;;;;3.17;2.90;;;;;;;;;;4918886;29;20032;-72
2023/09/29 07:44:10;;;;;;;2.90;2.67;;;;;;;;;;4919070;29;20028;-71
2023/09/29 07:46:37;;;;;;;3.25;2.67;;;;;;;;;;4921845;29;20119;-70
2023/09/29 07:49:03;;;;;;;2.92;2.65;;;;;;;;;;4927893;29;20071;-74
2023/09/29 07:51:30;;;;;;;3.00;2.70;;;;;;;;;;4918167;29;20025;-70
2023/09/29 07:53:57;;;;;;;4.95;2.70;;;;;;;;;;4918359;29;20118;-71
2023/09/29 07:56:23;;;;;;;3.47;3.17;;;;;;;;;;4923479;29;20090;-74
2023/09/29 07:58:48;;;;;;;5.68;3.25;;;;;;;;;;4928093;29;20027;-72
2023/09/29 08:01:14;;;;;;;3.60;3.30;;;;;;;;;;4935539;29;20429;-72
2023/09/29 08:03:41;;;;;;;5.40;3.20;;;;;;;;;;4937205;29;20110;-71
2023/09/29 08:06:08;;;;;;;3.92;2.97;;;;;;;;;;4937411;29;20031;-72
2023/09/29 08:08:34;;;;;;;8.23;3.08;;;;;;;;;;4919937;29;20396;-73
2023/09/29 08:10:59;;;;;;;3.90;3.42;;;;;;;;;;4937137;29;20028;-71
2023/09/29 08:13:25;;;;;;;4.65;3.20;;;;;;;;;;4937412;29;20027;-73
2023/09/29 08:15:51;;;;;;;6.28;3.58;;;;;;;;;;4931860;29;20397;-72
2023/09/29 08:18:17;;;;;;;3.28;2.97;;;;;;;;;;4916890;29;20028;-73
2023/09/29 08:20:43;;;;;;;5.18;3.15;;;;;;;;;;4916888;29;20035;-72
2023/09/29 08:23:09;;;;;;;3.22;2.85;;;;;;;;;;4915381;29;20234;-73
2023/09/29 08:25:35;;;;;;;6.30;3.10;;;;;;;;;;4913400;29;20038;-74
2023/09/29 08:28:04;;;;;;;4.78;3.28;;;;;;;;;;4917356;29;20035;-73
2023/09/29 08:30:29;;;;;;;4.07;3.20;;;;;;;;;;4915069;29;20536;-73
2023/09/29 08:32:55;;;;;;;3.22;2.85;;;;;;;;;;4917576;29;20039;-70
2023/09/29 08:35:21;;;;;;;3.30;3.00;;;;;;;;;;4923181;29;20028;-72
2023/09/29 08:37:47;;;;;;;5.63;3.22;;;;;;;;;;4918944;29;20119;-73
2023/09/29 08:40:16;;;;;;;3.83;3.38;;;;;;;;;;4915129;29;20039;-71
2023/09/29 08:42:45;;;;;;;4.03;3.60;;;;;;;;;;4916549;29;20107;-73
2023/09/29 08:45:12;;;;;;;4.88;3.83;;;;;;;;;;4915614;29;20023;-73
2023/09/29 08:47:40;;;;;;;4.40;3.15;;;;;;;;;;4916561;29;20032;-73
2023/09/29 08:50:07;;;;;;;4.10;3.70;;;;;;;;;;4916515;29;20560;-73
2023/09/29 08:52:33;;;;;;;5.13;3.70;;;;;;;;;;4916155;29;20096;-73
2023/09/29 08:55:00;;;;;;;3.50;3.17;;;;;;;;;;4917431;29;20032;-70
2023/09/29 08:57:26;;;;;;;3.80;3.47;;;;;;;;;;4917321;29;20519;-71
2023/09/29 08:59:53;;;;;;;6.50;3.30;;;;;;;;;;4917230;29;20036;-72
2023/09/29 09:02:19;;;;;;;5.18;3.42;;;;;;;;;;4915289;29;20035;-73
2023/09/29 09:04:45;;;;;;;4.88;3.15;;;;;;;;;;4916105;29;20016;-72
2023/09/29 09:07:11;;;;;;;4.00;3.20;;;;;;;;;;4916034;29;20020;-71
2023/09/29 09:09:37;;;;;;;3.38;3.08;;;;;;;;;;4914580;29;20106;-73
2023/09/29 09:12:04;;;;;;;4.90;3.50;;;;;;;;;;4914953;29;20425;-70
2023/09/29 09:14:40;;;;;;;3.10;2.85;;;;;;;;;;4915757;29;20028;-71
2023/09/29 09:17:07;;;;;;;3.50;3.20;;;;;;;;;;4915771;29;20116;-72
2023/09/29 09:19:45;;;;;;;7.07;3.42;;;;;;;;;;4915626;29;20385;-71
2023/09/29 09:22:38;;;;;;;8.95;3.80;;;;;;;;;;4919281;29;20032;-70
2023/09/29 09:25:04;;;;;;;6.38;3.22;;;;;;;;;;4916931;29;20024;-71
2023/09/29 09:27:39;;;;;;;4.80;3.38;;;;;;;;;;4916827;29;20063;-71
2023/09/29 09:30:06;;;;;;;7.13;3.75;;;;;;;;;;4916941;29;20111;-71
2023/09/29 09:32:32;;;;;;;6.70;3.63;;;;;;;;;;4915195;29;20035;-70
2023/09/29 09:34:58;;;;;;;3.88;3.50;;;;;;;;;;4916496;29;20377;-71
2023/09/29 09:37:28;;;;;;;6.05;3.90;;;;;;;;;;4912174;29;20032;-70
2023/09/29 09:39:55;;;;;;;6.03;3.60;;;;;;;;;;4913394;29;20024;-71
2023/09/29 09:42:26;;;;;;;5.60;3.60;;;;;;;;;;4915322;29;20020;-72
2023/09/29 09:44:57;;;;;;;4.93;3.95;;;;;;;;;;4923837;29;20082;-72
2023/09/29 09:47:25;;;;;;;3.95;3.55;;;;;;;;;;4924626;29;20100;-71
2023/09/29 09:49:57;;;;;;;5.30;3.75;;;;;;;;;;4910089;29;20403;-72
2023/09/29 09:52:30;;;;;;;6.00;3.85;;;;;;;;;;4934893;29;20052;-72
2023/09/29 09:55:10;;;;;;;4.95;3.90;;;;;;;;;;4917512;29;20508;-73
2023/09/29 09:57:41;;;;;;;4.60;3.80;;;;;;;;;;4916456;29;20501;-72
2023/09/29 10:00:10;;;;;;;6.32;3.65;;;;;;;;;;4916393;29;20532;-71
2023/09/29 10:02:51;;;;;;;8.98;3.67;;;;;;;;;;4916280;29;20024;-72
2023/09/29 10:05:30;;;;;;;5.53;3.33;;;;;;;;;;4916663;29;20495;-73
2023/09/29 10:08:01;;;;;;;9.38;3.70;;;;;;;;;;4899372;29;20520;-71
2023/09/29 10:10:34;;;;;;;4.13;3.60;;;;;;;;;;4914638;29;20036;-71
2023/09/29 10:13:03;;;;;;;3.53;3.22;;;;;;;;;;4915303;29;20131;-70
2023/09/29 10:15:32;;;;;;;4.40;3.70;;;;;;;;;;4914268;29;20377;-73
2023/09/29 10:18:03;;;;;;;10.48;3.90;;;;;;;;;;4913458;29;20066;-72
2023/09/29 10:20:33;;;;;;;5.05;3.67;;;;;;;;;;4915292;29;20071;-73
2023/09/29 10:23:06;;;;;;;7.78;3.85;;;;;;;;;;4916368;29;20043;-67
2023/09/29 10:25:39;;;;;;;3.95;3.55;;;;;;;;;;4915833;29;20026;-67
2023/09/29 10:28:07;;;;;;;4.07;3.30;;;;;;;;;;4914826;29;20036;-67
2023/09/29 10:30:39;;;;;;;6.25;3.70;;;;;;;;;;4916023;29;20056;-67
2023/09/29 10:33:07;;;;;;;4.32;3.47;;;;;;;;;;4916438;29;20080;-67
2023/09/29 10:35:47;;;;;;;11.27;3.50;;;;;;;;;;4915335;29;20072;-67
2023/09/29 10:38:23;;;;;;;3.90;3.50;;;;;;;;;;4915100;29;20035;-67
2023/09/29 10:40:49;;;;;;;4.05;3.65;;;;;;;;;;4915563;29;20063;-67
2023/09/29 10:43:23;;;;;;;8.93;4.10;;;;;;;;;;4916064;29;20024;-67
2023/09/29 10:45:52;;;;;;;5.05;4.20;;;;;;;;;;4916817;29;20042;-67
2023/09/29 10:48:22;;;;;;;7.03;4.88;;;;;;;;;;4919597;29;20028;-67
2023/09/29 10:50:49;;;;;;;5.75;4.50;;;;;;;;;;4919526;29;20036;-67
2023/09/29 10:53:16;;;;;;;6.47;3.88;;;;;;;;;;4919418;29;20050;-67
2023/09/29 10:55:47;;;;;;;6.35;4.20;;;;;;;;;;4919540;29;20043;-67
2023/09/29 10:58:14;;;;;;;7.22;4.18;;;;;;;;;;4919479;29;20044;-67
2023/09/29 11:00:46;;;;;;;4.97;3.95;;;;;;;;;;4919464;29;20058;-67
2023/09/29 11:03:16;;;;;;;8.18;4.28;;;;;;;;;;4919664;29;20083;-67
2023/09/29 11:05:53;;;;;;;7.45;4.18;;;;;;;;;;4919403;29;20110;-67
2023/09/29 11:08:20;;;;;;;5.28;4.05;;;;;;;;;;4919481;29;20063;-67
2023/09/29 11:10:56;;;;;;;7.22;4.10;;;;;;;;;;4919256;29;20052;-67
2023/09/29 11:13:22;;;;;;;8.98;5.20;;;;;;;;;;4919421;29;20035;-67
2023/09/29 11:15:49;;;;;;;4.53;4.13;;;;;;;;;;4919761;29;20521;-67
2023/09/29 11:18:28;;;;;;;5.10;4.55;;;;;;;;;;4902340;29;20056;-67
2023/09/29 11:20:53;;;;;;;5.00;4.20;;;;;;;;;;4919145;29;20024;-67
2023/09/29 11:23:19;;;;;;;4.78;3.95;;;;;;;;;;4919342;29;20186;-67
2023/09/29 11:25:49;;;;;;;6.60;4.22;;;;;;;;;;4919004;29;20465;-67
2023/09/29 11:28:15;;;;;;;7.40;4.22;;;;;;;;;;4901911;29;20028;-67
2023/09/29 11:30:42;;;;;;;4.97;3.72;;;;;;;;;;4919046;29;20080;-67
2023/09/29 11:33:13;;;;;;;5.07;4.43;;;;;;;;;;4918835;29;20027;-67
2023/09/29 11:35:42;;;;;;;5.05;4.00;;;;;;;;;;4919125;29;20102;-67
2023/09/29 11:38:07;;;;;;;4.97;3.90;;;;;;;;;;4918853;29;20043;-67
2023/09/29 11:40:33;;;;;;;8.75;4.18;;;;;;;;;;4918754;29;20037;-67
2023/09/29 11:42:59;;;;;;;7.63;4.60;;;;;;;;;;4918736;29;20032;-67
2023/09/29 11:45:25;;;;;;;6.10;4.00;;;;;;;;;;4918694;29;20087;-67
2023/09/29 11:47:51;;;;;;;5.70;4.03;;;;;;;;;;4918674;29;20020;-67
2023/09/29 11:50:18;;;;;;;5.20;3.97;;;;;;;;;;4918291;29;20024;-67
2023/09/29 11:52:43;;;;;;;4.50;3.88;;;;;;;;;;4920897;29;20509;-67
2023/09/29 11:55:11;;;;;;;8.40;4.20;;;;;;;;;;4918505;29;20036;-67
2023/09/29 11:57:40;;;;;;;4.45;3.88;;;;;;;;;;4917277;29;20429;-67
2023/09/29 12:00:10;;;;;;;6.07;4.35;;;;;;;;;;4918383;29;20064;-67
2023/09/29 12:02:37;;;;;;;4.47;4.05;;;;;;;;;;4918124;29;20051;-67
2023/09/29 12:05:06;;;;;;;5.90;4.20;;;;;;;;;;4901372;29;20040;-67
2023/09/29 12:07:33;;;;;;;7.63;3.92;;;;;;;;;;4920771;29;20030;-67
2023/09/29 12:09:59;;;;;;;6.13;4.57;;;;;;;;;;4926487;29;20036;-67
2023/09/29 12:12:26;;;;;;;6.10;4.50;;;;;;;;;;4927353;29;20032;-67
2023/09/29 12:14:53;;;;;;;5.88;4.60;;;;;;;;;;4927274;29;20020;-67
2023/09/29 12:17:19;;;;;;;5.50;3.95;;;;;;;;;;4923939;29;20039;-67
2023/09/29 12:19:44;;;;;;;5.53;4.60;;;;;;;;;;4919362;29;20056;-67
2023/09/29 12:22:10;;;;;;;6.18;4.75;;;;;;;;;;4916397;29;20460;-67
2023/09/29 12:24:38;;;;;;;7.68;4.90;;;;;;;;;;4922803;29;20107;-67
2023/09/29 12:27:05;;;;;;;8.35;4.57;;;;;;;;;;4915865;29;20024;-67
2023/09/29 12:29:31;;;;;;;7.78;4.40;;;;;;;;;;4925884;29;20060;-67
2023/09/29 12:31:57;;;;;;;10.48;4.45;;;;;;;;;;4907574;29;20114;-68
2023/09/29 12:34:22;;;;;;;7.28;4.80;;;;;;;;;;4918750;29;20103;-68
2023/09/29 12:36:48;;;;;;;6.72;4.35;;;;;;;;;;4916507;29;20036;-68
2023/09/29 12:39:13;;;;;;;7.63;4.50;;;;;;;;;;4916209;29;20090;-68
2023/09/29 12:41:40;;;;;;;7.47;4.47;;;;;;;;;;4916351;29;20092;-67
2023/09/29 12:44:06;;;;;;;6.15;3.95;;;;;;;;;;4898416;29;20032;-68
2023/09/29 12:46:32;;;;;;;4.65;3.97;;;;;;;;;;4924467;29;20024;-68
2023/09/29 12:49:00;;;;;;;6.15;4.20;;;;;;;;;;4922100;29;20027;-67
2023/09/29 12:51:26;;;;;;;7.82;4.00;;;;;;;;;;4915969;29;20024;-67
2023/09/29 12:53:52;;;;;;;6.18;4.07;;;;;;;;;;4915692;29;20106;-67
2023/09/29 12:56:18;;;;;;;5.72;4.28;;;;;;;;;;4915924;29;20024;-68
2023/09/29 12:58:44;;;;;;;4.53;4.05;;;;;;;;;;4916063;29;20434;-67
2023/09/29 13:01:10;;;;;;;6.53;4.32;;;;;;;;;;4916053;29;20039;-67
2023/09/29 13:03:39;;;;;;;11.45;5.15;;;;;;;;;;4915979;29;20032;-68
2023/09/29 13:06:05;;;;;;;5.60;4.70;;;;;;;;;;4915706;29;20028;-67
2023/09/29 13:08:31;;;;;;;6.50;4.32;;;;;;;;;;4915127;29;20032;-67
2023/09/29 13:10:56;;;;;;;5.30;4.00;;;;;;;;;;4915720;29;20056;-67
2023/09/29 13:13:23;;;;;;;5.65;4.25;;;;;;;;;;4915552;29;20032;-67
2023/09/29 13:15:52;;;;;;;5.63;4.35;;;;;;;;;;4915641;29;20434;-67
2023/09/29 13:18:20;;;;;;;6.80;4.10;;;;;;;;;;4915516;29;20028;-67
2023/09/29 13:20:48;;;;;;;9.65;4.47;;;;;;;;;;4915447;29;20083;-67
2023/09/29 13:23:15;;;;;;;6.07;4.05;;;;;;;;;;4915342;29;20103;-67
2023/09/29 13:25:41;;;;;;;5.13;4.32;;;;;;;;;;4915375;29;20025;-67
2023/09/29 13:28:07;;;;;;;8.30;4.28;;;;;;;;;;4915272;29;20021;-67
2023/09/29 13:30:32;;;;;;;6.75;4.10;;;;;;;;;;4915212;29;20039;-66
2023/09/29 13:32:58;;;;;;;4.55;4.00;;;;;;;;;;4915365;29;20408;-67
2023/09/29 13:35:23;;;;;;;6.05;4.43;;;;;;;;;;4915129;29;20106;-67
2023/09/29 13:37:49;;;;;;;5.53;4.15;;;;;;;;;;4915398;29;20032;-67
2023/09/29 13:40:15;;;;;;;5.75;4.20;;;;;;;;;;4915064;29;20441;-67
2023/09/29 13:42:41;;;;;;;4.88;3.95;;;;;;;;;;4915077;29;20027;-67
2023/09/29 13:45:07;;;;;;;4.00;3.70;;;;;;;;;;4915072;29;20397;-67
2023/09/29 13:47:33;;;;;;;6.40;4.03;;;;;;;;;;4898061;29;20075;-67
2023/09/29 13:50:02;;;;;;;6.05;3.97;;;;;;;;;;4914989;29;20032;-67
2023/09/29 13:52:29;;;;;;;7.38;4.38;;;;;;;;;;4914831;29;20051;-67
2023/09/29 13:54:55;;;;;;;6.82;4.10;;;;;;;;;;4915023;29;20489;-67
2023/09/29 13:57:21;;;;;;;4.78;4.30;;;;;;;;;;4915042;29;20027;-67
2023/09/29 13:59:47;;;;;;;5.03;3.95;;;;;;;;;;4914872;29;20036;-67
2023/09/29 14:02:13;;;;;;;4.60;4.20;;;;;;;;;;4914810;29;20110;-67
2023/09/29 14:04:40;;;;;;;5.13;4.10;;;;;;;;;;4914805;29;20024;-67
2023/09/29 14:07:06;;;;;;;6.45;3.78;;;;;;;;;;4914821;29;20031;-67
2023/09/29 14:09:31;;;;;;;4.93;3.97;;;;;;;;;;4914954;29;20040;-67
2023/09/29 14:11:57;;;;;;;7.38;4.47;;;;;;;;;;4914680;29;20466;-68
2023/09/29 14:14:22;;;;;;;5.25;3.67;;;;;;;;;;4914761;29;20029;-67
2023/09/29 14:16:49;;;;;;;6.10;4.45;;;;;;;;;;4914758;29;20028;-67
2023/09/29 14:19:15;;;;;;;5.18;3.92;;;;;;;;;;4914843;29;20107;-67
2023/09/29 14:21:41;;;;;;;5.63;4.47;;;;;;;;;;4916827;29;20047;-67
2023/09/29 14:24:07;;;;;;;4.40;4.00;;;;;;;;;;4918583;29;20074;-67
2023/09/29 14:26:33;;;;;;;5.85;3.80;;;;;;;;;;4918598;29;20031;-68
2023/09/29 14:28:59;;;;;;;4.47;3.90;;;;;;;;;;4918415;29;20028;-67
2023/09/29 14:31:26;;;;;;;5.60;3.85;;;;;;;;;;4918483;29;20087;-67
2023/09/29 14:33:53;;;;;;;5.88;3.92;;;;;;;;;;4918602;29;20452;-67
2023/09/29 14:36:19;;;;;;;4.60;4.20;;;;;;;;;;4918389;29;20028;-67
2023/09/29 14:38:44;;;;;;;5.15;3.67;;;;;;;;;;4918513;29;20043;-67
2023/09/29 14:41:10;;;;;;;4.20;3.80;;;;;;;;;;4918296;29;20541;-67
2023/09/29 14:43:36;;;;;;;4.85;3.97;;;;;;;;;;4918327;29;20381;-67
2023/09/29 14:46:08;;;;;;;5.13;4.38;;;;;;;;;;4918089;29;20111;-67
2023/09/29 14:48:34;;;;;;;4.45;4.05;;;;;;;;;;4918101;29;20892;-68
2023/09/29 14:51:06;;;;;;;6.57;4.07;;;;;;;;;;4917996;29;20055;-67
2023/09/29 14:53:37;;;;;;;6.90;4.03;;;;;;;;;;4917850;29;20449;-69
2023/09/29 14:56:06;;;;;;;5.22;4.30;;;;;;;;;;4917777;29;20778;-68
2023/09/29 14:58:32;;;;;;;5.13;4.00;;;;;;;;;;4917795;29;20055;-67
2023/09/29 15:00:57;;;;;;;4.80;4.30;;;;;;;;;;4917777;29;20036;-68
2023/09/29 15:03:23;;;;;;;7.82;3.95;;;;;;;;;;4917733;29;20165;-67
2023/09/29 15:05:48;;;;;;;4.10;3.70;;;;;;;;;;4917906;29;20481;-67
2023/09/29 15:08:15;;;;;;;5.97;3.97;;;;;;;;;;4917801;29;20032;-67
2023/09/29 15:10:42;;;;;;;8.10;4.00;;;;;;;;;;4917644;29;20036;-67
2023/09/29 15:13:08;;;;;;;5.47;3.75;;;;;;;;;;4917757;29;20126;-67
2023/09/29 15:15:37;;;;;;;9.25;4.13;;;;;;;;;;4917902;29;20043;-67
2023/09/29 15:18:04;;;;;;;4.20;3.77;;;;;;;;;;4917569;29;20509;-67
2023/09/29 15:20:30;;;;;;;4.72;3.85;;;;;;;;;;4917625;29;20294;-68
2023/09/29 15:22:56;;;;;;;5.93;3.88;;;;;;;;;;4917740;29;20107;-68
2023/09/29 15:25:21;;;;;;;7.35;4.22;;;;;;;;;;4917482;29;20464;-67
2023/09/29 15:27:47;;;;;;;4.72;3.80;;;;;;;;;;4917817;29;20036;-68
2023/09/29 15:30:13;;;;;;;4.30;3.90;;;;;;;;;;4917539;29;20040;-68
2023/09/29 15:32:38;;;;;;;4.10;3.70;;;;;;;;;;4917152;29;20374;-67
2023/09/29 15:35:08;;;;;;;5.88;3.92;;;;;;;;;;4917391;29;20110;-66
2023/09/29 15:37:34;;;;;;;5.22;4.25;;;;;;;;;;4917213;29;20036;-67
2023/09/29 15:39:59;;;;;;;5.13;4.03;;;;;;;;;;4917112;29;20036;-69
2023/09/29 15:42:25;;;;;;;6.82;4.18;;;;;;;;;;4917404;29;20032;-67
2023/09/29 15:44:53;;;;;;;4.28;3.88;;;;;;;;;;4917223;29;20132;-67
2023/09/29 15:47:18;;;;;;;4.82;4.32;;;;;;;;;;4917026;29;20039;-67
2023/09/29 15:49:44;;;;;;;4.32;3.92;;;;;;;;;;4916964;29;20048;-68
2023/09/29 15:52:12;;;;;;;5.80;4.18;;;;;;;;;;4916683;29;20087;-68
2023/09/29 15:54:38;;;;;;;5.10;4.00;;;;;;;;;;4916935;29;20362;-66
2023/09/29 15:57:03;;;;;;;6.47;4.20;;;;;;;;;;4916629;29;20088;-67
2023/09/29 15:59:29;;;;;;;6.68;3.92;;;;;;;;;;4921768;29;20110;-66
2023/09/29 16:01:55;;;;;;;6.35;3.92;;;;;;;;;;4935845;29;20023;-66
2023/09/29 16:04:20;;;;;;;5.55;4.10;;;;;;;;;;4935857;29;20050;-67
2023/09/29 16:06:46;;;;;;;4.50;4.07;;;;;;;;;;4922987;29;20038;-67
2023/09/29 16:09:11;;;;;;;5.43;4.20;;;;;;;;;;4926496;29;20400;-66
2023/09/29 16:11:37;;;;;;;6.13;3.88;;;;;;;;;;4918432;29;20397;-67
2023/09/29 16:14:03;;;;;;;5.88;4.00;;;;;;;;;;4935584;29;20027;-67
2023/09/29 16:16:29;;;;;;;12.43;4.20;;;;;;;;;;4936296;29;20020;-67
2023/09/29 16:18:54;;;;;;;6.90;4.07;;;;;;;;;;4937075;29;20035;-66
2023/09/29 16:21:20;;;;;;;6.97;4.53;;;;;;;;;;4937317;29;20047;-66
2023/09/29 16:23:46;;;;;;;10.93;4.43;;;;;;;;;;4937111;29;20508;-66
2023/09/29 16:26:13;;;;;;;9.98;4.22;;;;;;;;;;4936911;29;20372;-66
2023/09/29 16:28:39;;;;;;;8.00;4.10;;;;;;;;;;4936907;29;20433;-66
2023/09/29 16:31:11;;;;;;;6.75;4.30;;;;;;;;;;4936829;29;20071;-66
2023/09/29 16:33:36;;;;;;;6.93;4.28;;;;;;;;;;4936820;29;20156;-66
2023/09/29 16:36:02;;;;;;;5.43;4.05;;;;;;;;;;4936823;29;20501;-66
2023/09/29 16:38:28;;;;;;;7.82;4.30;;;;;;;;;;4935468;29;20389;-66
2023/09/29 16:40:55;;;;;;;6.70;3.92;;;;;;;;;;4936723;29;20075;-66
2023/09/29 16:43:21;;;;;;;9.27;4.22;;;;;;;;;;4936032;29;20063;-66
2023/09/29 16:45:48;;;;;;;7.82;4.40;;;;;;;;;;4936559;29;20063;-66
2023/09/29 16:48:13;;;;;;;5.18;3.90;;;;;;;;;;4936511;29;20087;-66
2023/09/29 16:50:39;;;;;;;5.35;3.70;;;;;;;;;;4936418;29;20031;-66
2023/09/29 16:53:05;;;;;;;4.28;3.72;;;;;;;;;;4919488;29;20054;-66
2023/09/29 16:55:30;;;;;;;5.10;4.00;;;;;;;;;;4936578;29;20043;-66
2023/09/29 16:57:56;;;;;;;4.25;3.70;;;;;;;;;;4936453;29;20023;-66
2023/09/29 17:00:21;;;;;;;4.65;3.83;;;;;;;;;;4919264;29;20052;-66
2023/09/29 17:02:47;;;;;;;6.72;4.05;;;;;;;;;;4936261;29;20114;-66
2023/09/29 17:05:14;;;;;;;5.13;4.25;;;;;;;;;;4936288;29;20024;-66
2023/09/29 17:07:39;;;;;;;4.93;4.18;;;;;;;;;;4936155;29;20042;-66
2023/09/29 17:10:06;;;;;;;6.75;3.72;;;;;;;;;;4936254;29;20028;-66
2023/09/29 17:12:32;;;;;;;5.03;3.70;;;;;;;;;;4936079;29;20027;-66
2023/09/29 17:14:59;;;;;;;6.93;3.85;;;;;;;;;;4936106;29;20027;-66
2023/09/29 17:17:25;;;;;;;7.05;3.78;;;;;;;;;;4936017;29;20030;-66
2023/09/29 17:19:51;;;;;;;5.82;4.00;;;;;;;;;;4935971;29;20032;-66
2023/09/29 17:22:19;;;;;;;5.00;4.40;;;;;;;;;;4935922;29;20039;-66
2023/09/29 17:24:45;;;;;;;5.55;3.80;;;;;;;;;;4935948;29;20058;-66
2023/09/29 17:27:11;;;;;;;5.35;3.85;;;;;;;;;;4935881;29;20481;-66
2023/09/29 17:29:36;;;;;;;4.53;3.63;;;;;;;;;;4931648;29;20036;-66
2023/09/29 17:32:02;;;;;;;6.13;3.83;;;;;;;;;;4921265;29;20063;-70
2023/09/29 17:34:27;;;;;;;5.53;4.38;;;;;;;;;;4919520;29;20051;-66
2023/09/29 17:36:53;;;;;;;7.72;4.32;;;;;;;;;;4916710;29;20221;-66
2023/09/29 17:39:18;;;;;;;6.38;3.92;;;;;;;;;;4899586;29;20036;-66
2023/09/29 17:41:44;;;;;;;5.72;3.97;;;;;;;;;;4925464;29;20140;-66
2023/09/29 17:44:10;;;;;;;4.90;4.13;;;;;;;;;;4916456;29;20610;-67
2023/09/29 17:46:39;;;;;;;5.25;4.38;;;;;;;;;;4916506;29;20028;-66
2023/09/29 17:49:06;;;;;;;5.05;4.25;;;;;;;;;;4916762;29;20036;-67
2023/09/29 17:51:31;;;;;;;5.50;3.92;;;;;;;;;;4916451;29;20039;-67
2023/09/29 17:53:57;;;;;;;6.80;4.30;;;;;;;;;;4899131;29;20052;-66
2023/09/29 17:56:22;;;;;;;4.40;3.95;;;;;;;;;;4916477;29;20059;-67
2023/09/29 17:58:48;;;;;;;8.27;4.25;;;;;;;;;;4916421;29;20115;-65
2023/09/29 18:01:13;;;;;;;6.20;4.40;;;;;;;;;;4916551;29;20111;-64
2023/09/29 18:03:40;;;;;;;6.45;4.32;;;;;;;;;;4915945;29;20634;-65
2023/09/29 18:06:06;;;;;;;8.48;4.20;;;;;;;;;;4915641;29;20048;-69
2023/09/29 18:08:32;;;;;;;7.50;4.60;;;;;;;;;;4916354;29;20067;-64
2023/09/29 18:10:58;;;;;;;7.68;4.65;;;;;;;;;;4916364;29;20481;-65
2023/09/29 18:13:24;;;;;;;5.97;4.03;;;;;;;;;;4915402;29;20052;-64
2023/09/29 18:15:51;;;;;;;10.18;4.40;;;;;;;;;;4915167;29;20028;-64
2023/09/29 18:18:16;;;;;;;5.93;4.30;;;;;;;;;;4914694;29;20032;-64
2023/09/29 18:20:42;;;;;;;5.00;3.80;;;;;;;;;;4914602;29;20024;-64
2023/09/29 18:23:08;;;;;;;10.20;4.55;;;;;;;;;;4915625;29;20055;-66
2023/09/29 18:25:33;;;;;;;5.18;4.10;;;;;;;;;;4915515;29;20028;-64
2023/09/29 18:28:00;;;;;;;5.57;3.90;;;;;;;;;;4915583;29;20241;-64
2023/09/29 18:30:26;;;;;;;7.25;4.32;;;;;;;;;;4915969;29;20067;-64
2023/09/29 18:32:52;;;;;;;4.53;4.10;;;;;;;;;;4915968;29;20389;-64
2023/09/29 18:35:18;;;;;;;8.68;4.72;;;;;;;;;;4916007;29;20020;-64
2023/09/29 18:37:44;;;;;;;7.88;4.88;;;;;;;;;;4916050;29;20024;-64
2023/09/29 18:40:12;;;;;;;7.00;4.20;;;;;;;;;;4915969;29;20028;-64
2023/09/29 18:42:37;;;;;;;5.93;4.45;;;;;;;;;;4899657;29;20107;-64
2023/09/29 18:45:03;;;;;;;7.72;4.43;;;;;;;;;;4914740;29;20577;-64
2023/09/29 18:47:32;;;;;;;6.57;4.47;;;;;;;;;;4915188;29;20469;-64
2023/09/29 18:49:58;;;;;;;6.53;3.97;;;;;;;;;;4915890;29;20034;-64
2023/09/29 18:52:24;;;;;;;6.22;4.18;;;;;;;;;;4915630;29;20052;-64
2023/09/29 18:54:49;;;;;;;7.22;4.70;;;;;;;;;;4915297;29;20107;-65
2023/09/29 18:57:15;;;;;;;10.65;4.15;;;;;;;;;;4915739;29;20072;-64
2023/09/29 18:59:41;;;;;;;6.35;4.07;;;;;;;;;;4915905;29;20100;-64
2023/09/29 19:02:07;;;;;;;5.63;4.05;;;;;;;;;;4915843;29;20539;-64
2023/09/29 19:04:33;;;;;;;6.28;4.40;;;;;;;;;;4915915;29;20020;-64
2023/09/29 19:06:59;;;;;;;6.20;4.53;;;;;;;;;;4916629;29;20075;-64
2023/09/29 19:09:24;;;;;;;9.98;4.50;;;;;;;;;;4919258;29;20042;-64
2023/09/29 19:11:50;;;;;;;6.13;4.45;;;;;;;;;;4919316;29;20040;-63
2023/09/29 19:14:16;;;;;;;5.20;4.38;;;;;;;;;;4918050;29;20028;-64
2023/09/29 19:16:41;;;;;;;6.93;4.82;;;;;;;;;;4919448;29;20024;-64
2023/09/29 19:19:08;;;;;;;4.90;4.15;;;;;;;;;;4919203;29;20099;-64
2023/09/29 19:21:34;;;;;;;6.93;4.60;;;;;;;;;;4919442;29;20381;-64
2023/09/29 19:23:59;;;;;;;7.75;4.40;;;;;;;;;;4886412;29;20043;-64
2023/09/29 19:26:26;;;;;;;8.88;4.25;;;;;;;;;;4919111;29;20486;-64
2023/09/29 19:28:56;;;;;;;7.88;4.32;;;;;;;;;;4919157;29;20028;-64
2023/09/29 19:31:25;;;;;;;5.40;4.13;;;;;;;;;;4918869;29;20032;-63
2023/09/29 19:33:55;;;;;;;9.25;4.57;;;;;;;;;;4919228;29;20409;-64
2023/09/29 19:36:20;;;;;;;6.80;4.38;;;;;;;;;;4918959;29;20024;-64
2023/09/29 19:38:46;;;;;;;5.82;4.28;;;;;;;;;;4918664;29;20500;-64
2023/09/29 19:41:13;;;;;;;8.23;4.25;;;;;;;;;;4918681;29;20029;-65
2023/09/29 19:43:39;;;;;;;8.00;4.40;;;;;;;;;;4918733;29;20075;-64
2023/09/29 19:46:05;;;;;;;4.95;4.35;;;;;;;;;;4918972;29;20032;-64
2023/09/29 19:48:31;;;;;;;6.18;4.50;;;;;;;;;;4918614;29;20099;-64
2023/09/29 19:51:04;;;;;;;6.18;4.45;;;;;;;;;;4917202;29;20032;-64
2023/09/29 19:53:30;;;;;;;5.43;4.38;;;;;;;;;;4916857;29;20119;-64
2023/09/29 19:55:58;;;;;;;5.05;4.05;;;;;;;;;;4917237;29;20137;-68
2023/09/29 19:58:28;;;;;;;5.22;4.43;;;;;;;;;;4917344;29;20055;-70
2023/09/29 20:00:54;;;;;;;5.15;4.13;;;;;;;;;;4918343;29;20035;-70
2023/09/29 20:03:20;;;;;;;6.88;4.60;;;;;;;;;;4924067;29;20302;-63
2023/09/29 20:05:47;;;;;;;4.63;3.88;;;;;;;;;;4927362;29;20028;-71
2023/09/29 20:08:17;;;;;;;6.43;4.00;;;;;;;;;;4933788;29;20028;-65
2023/09/29 20:10:44;;;;;;;9.32;4.18;;;;;;;;;;4934457;29;20036;-64
2023/09/29 20:13:10;;;;;;;8.45;4.57;;;;;;;;;;4928260;29;20027;-64
2023/09/29 20:15:36;;;;;;;5.65;4.40;;;;;;;;;;4927546;29;20043;-69
2023/09/29 20:18:05;;;;;;;5.22;4.18;;;;;;;;;;4926815;29;20370;-68
2023/09/29 20:20:30;;;;;;;4.63;4.10;;;;;;;;;;4925382;29;20032;-65
2023/09/29 20:22:56;;;;;;;5.47;4.38;;;;;;;;;;4925715;29;20312;-67
2023/09/29 20:25:21;;;;;;;7.10;4.30;;;;;;;;;;4927322;29;20019;-64
2023/09/29 20:27:47;;;;;;;5.85;4.53;;;;;;;;;;4925185;29;20385;-68
2023/09/29 20:30:13;;;;;;;6.57;4.30;;;;;;;;;;4916647;29;20036;-64
2023/09/29 20:32:39;;;;;;;6.03;4.53;;;;;;;;;;4916918;29;20036;-64